createdAt,value
2018-06-20T00:00:06.707Z,17.5
2018-06-20T00:01:06.155Z,17.5
2018-06-20T00:02:05.264Z,17.6
2018-06-20T00:03:04.383Z,17.6
2018-06-20T00:04:03.991Z,17.6
2018-06-20T00:05:03.200Z,17.6
2018-06-20T00:06:02.521Z,17.6
2018-06-20T00:07:01.739Z,17.6
2018-06-20T00:08:01.454Z,17.6
2018-06-20T00:09:00.558Z,17.6
2018-06-20T00:09:59.767Z,17.6
2018-06-20T00:10:59.099Z,17.7
2018-06-20T00:11:58.411Z,17.7
2018-06-20T00:12:58.017Z,17.7
2018-06-20T00:13:57.444Z,17.7
2018-06-20T00:14:56.866Z,17.7
2018-06-20T00:15:26.887Z,17.7
2018-06-20T00:16:55.503Z,17.7
2018-06-20T00:17:54.716Z,17.7
2018-06-20T00:18:54.029Z,17.7
2018-06-20T00:19:53.126Z,17.7
2018-06-20T00:20:52.944Z,17.7
2018-06-20T00:21:52.161Z,17.8
2018-06-20T00:22:51.586Z,17.8
2018-06-20T00:23:50.906Z,17.8
2018-06-20T00:24:50.121Z,17.8
2018-06-20T00:25:49.329Z,17.8
2018-06-20T00:26:48.545Z,17.8
2018-06-20T00:27:48.262Z,17.8
2018-06-20T00:28:47.473Z,17.8
2018-06-20T00:29:46.900Z,17.9
2018-06-20T00:30:46.111Z,17.9
2018-06-20T00:31:45.539Z,17.9
2018-06-20T00:32:44.752Z,17.9
2018-06-20T00:33:43.863Z,17.9
2018-06-20T00:34:43.700Z,17.9
2018-06-20T00:35:43.134Z,17.9
2018-06-20T00:36:42.058Z,17.9
2018-06-20T00:37:41.485Z,17.9
2018-06-20T00:38:40.806Z,17.9
2018-06-20T00:39:40.123Z,17.9
2018-06-20T00:40:39.341Z,17.9
2018-06-20T00:41:38.767Z,17.9
2018-06-20T00:42:38.075Z,18
2018-06-20T00:43:37.390Z,18
2018-06-20T00:44:37.225Z,18
2018-06-20T00:45:36.142Z,18
2018-06-20T00:46:35.245Z,18
2018-06-20T00:47:34.969Z,18
2018-06-20T00:48:34.185Z,18
2018-06-20T00:49:34.010Z,18
2018-06-20T00:50:32.919Z,18
2018-06-20T00:51:32.022Z,18
2018-06-20T00:52:31.747Z,18
2018-06-20T00:53:30.993Z,18
2018-06-20T00:54:30.307Z,18
2018-06-20T00:55:00.936Z,18
2018-06-20T00:55:31.065Z,18
2018-06-20T00:56:01.807Z,18
2018-06-20T00:56:32.331Z,18
2018-06-20T00:57:02.756Z,18
2018-06-20T00:58:27.754Z,18.1
2018-06-20T00:59:26.862Z,18.1
2018-06-20T01:00:26.699Z,18.1
2018-06-20T01:01:26.027Z,18.1
2018-06-20T01:02:25.242Z,18.1
2018-06-20T01:03:24.571Z,18.1
2018-06-20T01:04:23.889Z,18.1
2018-06-20T01:04:54.018Z,18.1
2018-06-20T01:05:24.438Z,18.1
2018-06-20T01:05:55.178Z,18.1
2018-06-20T01:06:25.810Z,18.1
2018-06-20T01:06:56.035Z,18.1
2018-06-20T01:08:21.020Z,18.1
2018-06-20T01:09:20.339Z,18.1
2018-06-20T01:10:19.951Z,18.1
2018-06-20T01:11:19.064Z,18.1
2018-06-20T01:12:18.905Z,18.1
2018-06-20T01:13:18.116Z,18
2018-06-20T01:14:17.447Z,18
2018-06-20T01:15:16.767Z,18
2018-06-20T01:16:16.183Z,18
2018-06-20T01:17:15.503Z,18
2018-06-20T01:18:14.721Z,18
2018-06-20T01:19:14.153Z,18
2018-06-20T01:20:13.470Z,18
2018-06-20T01:21:12.788Z,18
2018-06-20T01:22:12.007Z,18
2018-06-20T01:23:11.443Z,17.9
2018-06-20T01:24:10.767Z,17.9
2018-06-20T01:25:10.031Z,17.9
2018-06-20T01:26:09.242Z,17.9
2018-06-20T01:27:08.958Z,17.9
2018-06-20T01:28:08.067Z,17.9
2018-06-20T01:29:07.374Z,17.8
2018-06-20T01:30:07.095Z,17.8
2018-06-20T01:31:06.317Z,17.8
2018-06-20T01:32:05.632Z,17.8
2018-06-20T01:33:04.748Z,17.8
2018-06-20T01:34:03.747Z,17.8
2018-06-20T01:35:03.679Z,17.8
2018-06-20T01:35:34.098Z,17.8
2018-06-20T01:36:04.735Z,17.7
2018-06-20T01:36:35.279Z,17.7
2018-06-20T01:38:01.673Z,17.7
2018-06-20T01:39:01.001Z,17.8
2018-06-20T01:40:00.429Z,17.7
2018-06-20T01:40:59.748Z,17.7
2018-06-20T01:41:59.067Z,17.7
2018-06-20T01:42:58.276Z,17.7
2018-06-20T01:44:56.879Z,17.7
2018-06-20T01:45:56.300Z,17.7
2018-06-20T01:46:56.117Z,17.6
2018-06-20T01:47:54.932Z,17.6
2018-06-20T01:48:54.353Z,17.6
2018-06-20T01:49:53.673Z,17.6
2018-06-20T01:50:53.085Z,17.6
2018-06-20T01:51:52.196Z,17.6
2018-06-20T01:52:51.910Z,17.6
2018-06-20T01:53:51.234Z,17.6
2018-06-20T01:54:50.551Z,17.6
2018-06-20T01:55:49.775Z,17.6
2018-06-20T01:56:49.210Z,17.6
2018-06-20T01:57:48.652Z,17.6
2018-06-20T01:58:47.973Z,17.5
2018-06-20T01:59:47.208Z,17.5
2018-06-20T02:00:46.533Z,17.5
2018-06-20T02:01:45.856Z,17.5
2018-06-20T02:02:45.071Z,17.5
2018-06-20T02:03:44.489Z,17.5
2018-06-20T02:04:43.922Z,17.5
2018-06-20T02:05:43.133Z,17.5
2018-06-20T02:06:42.560Z,17.5
2018-06-20T02:07:41.881Z,17.5
2018-06-20T02:08:41.107Z,17.5
2018-06-20T02:09:40.422Z,17.5
2018-06-20T02:10:39.530Z,17.4
2018-06-20T02:11:39.350Z,17.4
2018-06-20T02:12:38.565Z,17.4
2018-06-20T02:13:37.796Z,17.4
2018-06-20T02:14:37.559Z,17.4
2018-06-20T02:15:36.990Z,17.4
2018-06-20T02:16:35.703Z,17.4
2018-06-20T02:17:35.634Z,17.3
2018-06-20T02:18:34.740Z,17.3
2018-06-20T02:19:33.849Z,17.3
2018-06-20T02:20:33.057Z,17.2
2018-06-20T02:21:32.883Z,17.2
2018-06-20T02:22:33.755Z,17.2
2018-06-20T02:23:31.465Z,17.2
2018-06-20T02:24:30.780Z,17.2
2018-06-20T02:25:30.107Z,17.2
2018-06-20T02:26:29.430Z,17.2
2018-06-20T02:27:28.632Z,17.2
2018-06-20T02:28:27.741Z,17.1
2018-06-20T02:29:27.559Z,17.1
2018-06-20T02:30:26.667Z,17.1
2018-06-20T02:31:26.100Z,17.1
2018-06-20T02:32:25.332Z,17.1
2018-06-20T02:33:24.770Z,17.1
2018-06-20T02:34:24.226Z,17
2018-06-20T02:34:54.476Z,17
2018-06-20T02:36:23.102Z,17
2018-06-20T02:37:21.927Z,17
2018-06-20T02:38:21.400Z,17
2018-06-20T02:39:20.730Z,17
2018-06-20T02:40:19.738Z,17
2018-06-20T02:41:19.676Z,17
2018-06-20T02:42:19.004Z,17
2018-06-20T02:43:18.113Z,17
2018-06-20T02:44:17.444Z,16.9
2018-06-20T02:45:16.668Z,16.9
2018-06-20T02:45:47.420Z,16.9
2018-06-20T02:47:15.642Z,16.9
2018-06-20T02:48:14.963Z,16.9
2018-06-20T02:49:14.072Z,16.8
2018-06-20T02:50:13.284Z,16.8
2018-06-20T02:51:12.523Z,16.8
2018-06-20T02:52:11.991Z,16.8
2018-06-20T02:53:11.339Z,16.8
2018-06-20T02:54:10.773Z,16.8
2018-06-20T02:55:10.121Z,16.8
2018-06-20T02:56:09.569Z,16.8
2018-06-20T02:57:08.920Z,16.8
2018-06-20T02:58:08.157Z,16.7
2018-06-20T02:59:07.389Z,16.7
2018-06-20T03:00:06.828Z,16.7
2018-06-20T03:01:06.265Z,16.7
2018-06-20T03:02:05.505Z,16.7
2018-06-20T03:03:04.722Z,16.7
2018-06-20T03:04:04.166Z,16.7
2018-06-20T03:05:03.391Z,16.7
2018-06-20T03:06:02.652Z,16.7
2018-06-20T03:07:01.973Z,16.7
2018-06-20T03:08:01.203Z,16.7
2018-06-20T03:09:00.810Z,16.7
2018-06-20T03:10:00.128Z,16.7
2018-06-20T03:10:59.559Z,16.7
2018-06-20T03:11:59.019Z,16.7
2018-06-20T03:12:57.848Z,16.7
2018-06-20T03:13:57.170Z,16.7
2018-06-20T03:14:56.392Z,16.7
2018-06-20T03:15:27.032Z,16.7
2018-06-20T03:16:55.173Z,16.8
2018-06-20T03:17:54.609Z,16.8
2018-06-20T03:18:54.044Z,16.8
2018-06-20T03:19:53.361Z,16.8
2018-06-20T03:20:52.679Z,16.8
2018-06-20T03:21:52.104Z,16.8
2018-06-20T03:22:51.320Z,16.8
2018-06-20T03:23:50.639Z,16.8
2018-06-20T03:24:49.855Z,16.8
2018-06-20T03:25:20.388Z,16.8
2018-06-20T03:26:48.501Z,16.8
2018-06-20T03:27:47.821Z,16.8
2018-06-20T03:28:47.151Z,16.8
2018-06-20T03:29:46.473Z,16.8
2018-06-20T03:30:45.601Z,16.8
2018-06-20T03:32:44.314Z,16.8
2018-06-20T03:33:43.733Z,16.8
2018-06-20T03:34:43.055Z,16.9
2018-06-20T03:35:42.378Z,16.9
2018-06-20T03:36:41.598Z,16.9
2018-06-20T03:37:40.829Z,16.9
2018-06-20T03:38:40.546Z,16.9
2018-06-20T03:39:39.756Z,16.9
2018-06-20T03:40:39.181Z,16.9
2018-06-20T03:41:38.511Z,17
2018-06-20T03:42:37.723Z,17
2018-06-20T03:43:36.945Z,17
2018-06-20T03:44:36.060Z,17
2018-06-20T03:45:35.781Z,17
2018-06-20T03:46:34.991Z,17
2018-06-20T03:47:34.204Z,17
2018-06-20T03:48:33.814Z,17.1
2018-06-20T03:50:32.550Z,17.1
2018-06-20T03:51:31.733Z,17.1
2018-06-20T03:52:31.054Z,17.1
2018-06-20T03:53:30.477Z,17.1
2018-06-20T03:54:29.794Z,17.2
2018-06-20T03:55:29.117Z,17.2
2018-06-20T03:56:28.326Z,17.2
2018-06-20T03:57:27.535Z,17.2
2018-06-20T03:58:26.753Z,17.3
2018-06-20T03:59:29.503Z,17.3
2018-06-20T04:00:25.795Z,17.3
2018-06-20T04:01:25.014Z,17.3
2018-06-20T04:02:25.022Z,17.3
2018-06-20T04:03:23.465Z,17.4
2018-06-20T04:04:22.919Z,17.4
2018-06-20T04:05:22.359Z,17.4
2018-06-20T04:06:21.684Z,17.4
2018-06-20T04:07:20.898Z,17.5
2018-06-20T04:08:21.118Z,17.5
2018-06-20T04:09:19.544Z,17.5
2018-06-20T04:10:18.759Z,17.5
2018-06-20T04:11:18.579Z,17.5
2018-06-20T04:12:17.912Z,17.5
2018-06-20T04:13:17.387Z,17.6
2018-06-20T04:15:15.482Z,17.6
2018-06-20T04:16:14.797Z,17.6
2018-06-20T04:17:14.117Z,17.6
2018-06-20T04:18:13.635Z,17.7
2018-06-20T04:19:12.965Z,17.7
2018-06-20T04:20:12.287Z,17.7
2018-06-20T04:21:11.621Z,17.7
2018-06-20T04:22:10.946Z,17.7
2018-06-20T04:23:10.161Z,17.8
2018-06-20T04:24:09.268Z,17.8
2018-06-20T04:24:39.791Z,17.8
2018-06-20T04:26:08.196Z,17.8
2018-06-20T04:27:07.202Z,17.9
2018-06-20T04:28:06.932Z,17.9
2018-06-20T04:29:06.153Z,17.9
2018-06-20T04:30:05.986Z,17.9
2018-06-20T04:31:05.304Z,17.9
2018-06-20T04:32:04.744Z,18
2018-06-20T04:33:03.562Z,18
2018-06-20T04:34:02.898Z,18
2018-06-20T04:35:02.236Z,18
2018-06-20T04:36:01.571Z,18.1
2018-06-20T04:37:00.914Z,18.1
2018-06-20T04:38:00.745Z,18.1
2018-06-20T04:38:59.954Z,18.1
2018-06-20T04:39:59.273Z,18.2
2018-06-20T04:40:58.480Z,18.2
2018-06-20T04:41:57.903Z,18.2
2018-06-20T04:42:57.218Z,18.3
2018-06-20T04:43:56.428Z,18.3
2018-06-20T04:44:55.540Z,18.3
2018-06-20T04:45:55.378Z,18.3
2018-06-20T04:47:54.227Z,18.4
2018-06-20T04:48:52.936Z,18.4
2018-06-20T04:49:52.866Z,18.5
2018-06-20T04:50:52.085Z,18.5
2018-06-20T04:51:51.299Z,18.5
2018-06-20T04:52:50.736Z,18.6
2018-06-20T04:53:50.049Z,18.6
2018-06-20T04:55:48.651Z,18.7
2018-06-20T04:56:47.855Z,18.7
2018-06-20T04:58:46.858Z,18.7
2018-06-20T04:59:46.295Z,18.8
2018-06-20T05:00:45.720Z,18.8
2018-06-20T05:01:44.437Z,18.8
2018-06-20T05:02:44.166Z,18.8
2018-06-20T05:03:43.615Z,18.9
2018-06-20T05:04:42.825Z,18.9
2018-06-20T05:05:13.461Z,18.9
2018-06-20T05:05:44.217Z,18.9
2018-06-20T05:06:14.355Z,18.9
2018-06-20T05:06:44.989Z,19
2018-06-20T05:07:15.512Z,19
2018-06-20T05:07:46.055Z,19
2018-06-20T05:08:16.697Z,19
2018-06-20T05:08:47.122Z,19
2018-06-20T05:09:17.764Z,19
2018-06-20T05:10:38.722Z,19.1
2018-06-20T05:11:38.431Z,19.1
2018-06-20T05:13:37.129Z,19.1
2018-06-20T05:14:36.445Z,19.2
2018-06-20T05:15:35.661Z,19.2
2018-06-20T05:16:34.877Z,19.2
2018-06-20T05:17:34.603Z,19.3
2018-06-20T05:18:33.811Z,19.3
2018-06-20T05:19:33.140Z,19.3
2018-06-20T05:20:32.468Z,19.3
2018-06-20T05:21:31.890Z,19.4
2018-06-20T05:22:31.421Z,19.4
2018-06-20T05:23:30.745Z,19.4
2018-06-20T05:24:29.850Z,19.4
2018-06-20T05:25:29.062Z,19.4
2018-06-20T05:26:28.666Z,19.5
2018-06-20T05:27:27.993Z,19.5
2018-06-20T05:28:26.997Z,19.5
2018-06-20T05:29:26.604Z,19.5
2018-06-20T05:30:26.323Z,19.6
2018-06-20T05:31:25.642Z,19.6
2018-06-20T05:32:25.079Z,19.6
2018-06-20T05:33:24.291Z,19.6
2018-06-20T05:34:23.506Z,19.7
2018-06-20T05:35:23.435Z,19.7
2018-06-20T05:36:22.654Z,19.7
2018-06-20T05:37:21.971Z,19.8
2018-06-20T05:38:21.189Z,19.8
2018-06-20T05:39:20.402Z,19.8
2018-06-20T05:40:20.229Z,19.8
2018-06-20T05:41:19.562Z,19.8
2018-06-20T05:42:18.775Z,19.9
2018-06-20T05:43:18.200Z,19.9
2018-06-20T05:44:17.522Z,19.9
2018-06-20T05:45:16.628Z,19.9
2018-06-20T05:46:16.352Z,19.9
2018-06-20T05:47:15.628Z,20
2018-06-20T05:47:46.256Z,20
2018-06-20T05:48:16.990Z,20
2018-06-20T05:48:47.119Z,20
2018-06-20T05:49:17.533Z,20
2018-06-20T05:49:48.173Z,20
2018-06-20T05:51:12.946Z,20.1
2018-06-20T05:52:12.380Z,20.1
2018-06-20T05:53:11.890Z,20.1
2018-06-20T05:54:10.995Z,20.1
2018-06-20T05:55:10.504Z,20.2
2018-06-20T05:56:09.829Z,20.2
2018-06-20T05:57:09.437Z,20.2
2018-06-20T05:58:08.536Z,20.2
2018-06-20T05:58:39.170Z,20.2
2018-06-20T05:59:09.698Z,20.3
2018-06-20T05:59:40.332Z,20.3
2018-06-20T06:01:06.834Z,20.3
2018-06-20T06:02:06.049Z,20.3
2018-06-20T06:04:05.264Z,20.4
2018-06-20T06:05:04.487Z,20.4
2018-06-20T06:06:03.601Z,20.4
2018-06-20T06:07:03.326Z,20.4
2018-06-20T06:08:02.334Z,20.4
2018-06-20T06:09:01.950Z,20.5
2018-06-20T06:10:01.670Z,20.5
2018-06-20T06:11:01.093Z,20.5
2018-06-20T06:12:00.521Z,20.5
2018-06-20T06:12:59.831Z,20.6
2018-06-20T06:13:59.145Z,20.6
2018-06-20T06:14:58.352Z,20.6
2018-06-20T06:15:57.669Z,20.7
2018-06-20T06:16:57.150Z,20.7
2018-06-20T06:17:56.527Z,20.7
2018-06-20T06:18:55.846Z,20.7
2018-06-20T06:19:55.165Z,20.7
2018-06-20T06:20:54.878Z,20.7
2018-06-20T06:21:54.207Z,20.7
2018-06-20T06:22:53.646Z,20.7
2018-06-20T06:23:52.872Z,20.7
2018-06-20T06:24:51.976Z,20.8
2018-06-20T06:25:51.796Z,20.8
2018-06-20T06:26:51.119Z,20.8
2018-06-20T06:27:50.472Z,20.9
2018-06-20T06:28:49.685Z,20.9
2018-06-20T06:29:49.398Z,20.9
2018-06-20T06:30:48.400Z,21
2018-06-20T06:31:48.221Z,21
2018-06-20T06:32:47.546Z,21
2018-06-20T06:33:46.864Z,21
2018-06-20T06:34:46.189Z,21.1
2018-06-20T06:35:46.013Z,21.1
2018-06-20T06:36:45.331Z,21.1
2018-06-20T06:37:44.910Z,21.1
2018-06-20T06:38:44.398Z,21.1
2018-06-20T06:39:43.211Z,21.2
2018-06-20T06:40:43.045Z,21.2
2018-06-20T06:41:42.478Z,21.2
2018-06-20T06:42:41.479Z,21.2
2018-06-20T06:43:40.875Z,21.3
2018-06-20T06:44:40.599Z,21.3
2018-06-20T06:45:39.936Z,21.3
2018-06-20T06:46:10.586Z,21.3
2018-06-20T06:46:41.242Z,21.4
2018-06-20T06:47:11.874Z,21.4
2018-06-20T06:48:38.154Z,21.4
2018-06-20T06:49:38.179Z,21.4
2018-06-20T06:50:36.737Z,21.5
2018-06-20T06:51:38.317Z,21.5
2018-06-20T06:52:35.517Z,21.5
2018-06-20T06:53:35.455Z,21.5
2018-06-20T06:55:34.273Z,21.6
2018-06-20T06:56:04.732Z,21.6
2018-06-20T06:56:34.897Z,21.7
2018-06-20T06:57:05.528Z,21.7
2018-06-20T06:57:35.944Z,21.7
2018-06-20T06:58:06.383Z,21.7
2018-06-20T06:59:31.878Z,21.8
2018-06-20T07:00:30.991Z,21.8
2018-06-20T07:01:30.812Z,21.8
2018-06-20T07:02:30.140Z,21.8
2018-06-20T07:03:29.356Z,21.8
2018-06-20T07:04:28.786Z,21.9
2018-06-20T07:05:28.058Z,21.9
2018-06-20T07:06:27.882Z,22
2018-06-20T07:07:27.012Z,22
2018-06-20T07:08:26.120Z,22
2018-06-20T07:09:25.735Z,22
2018-06-20T07:11:25.055Z,22
2018-06-20T07:12:24.381Z,22.1
2018-06-20T07:13:23.695Z,22.1
2018-06-20T07:14:22.904Z,22.1
2018-06-20T07:15:22.863Z,22.1
2018-06-20T07:16:22.202Z,22.1
2018-06-20T07:17:21.526Z,22.1
2018-06-20T07:18:20.738Z,22.2
2018-06-20T07:19:20.171Z,22.2
2018-06-20T07:20:19.788Z,22.2
2018-06-20T07:21:19.105Z,22.2
2018-06-20T07:22:18.461Z,22.2
2018-06-20T07:23:18.291Z,22.2
2018-06-20T07:24:18.094Z,22.2
2018-06-20T07:25:17.112Z,22.3
2018-06-20T07:26:16.535Z,22.3
2018-06-20T07:26:46.774Z,22.3
2018-06-20T07:27:17.003Z,22.3
2018-06-20T07:27:47.037Z,22.3
2018-06-20T07:28:17.565Z,22.3
2018-06-20T07:28:48.194Z,22.3
2018-06-20T07:29:19.130Z,22.3
2018-06-20T07:29:49.734Z,22.3
2018-06-20T07:30:19.610Z,22.3
2018-06-20T07:30:50.261Z,22.3
2018-06-20T07:32:13.243Z,22.3
2018-06-20T07:33:12.566Z,22.3
2018-06-20T07:34:12.520Z,22.3
2018-06-20T07:35:11.308Z,22.3
2018-06-20T07:36:10.687Z,22.4
2018-06-20T07:37:10.096Z,22.4
2018-06-20T07:38:09.314Z,22.4
2018-06-20T07:38:40.061Z,22.4
2018-06-20T07:39:10.190Z,22.5
2018-06-20T07:39:40.832Z,22.5
2018-06-20T07:40:11.472Z,22.5
2018-06-20T07:40:42.105Z,22.5
2018-06-20T07:42:07.385Z,22.6
2018-06-20T07:43:06.704Z,22.6
2018-06-20T07:44:06.627Z,22.6
2018-06-20T07:45:06.448Z,22.7
2018-06-20T07:46:05.228Z,22.7
2018-06-20T07:48:04.338Z,22.7
2018-06-20T07:49:03.668Z,22.7
2018-06-20T07:50:02.886Z,22.7
2018-06-20T07:52:01.898Z,22.7
2018-06-20T07:53:01.623Z,22.6
2018-06-20T07:54:00.950Z,22.7
2018-06-20T07:55:00.304Z,22.7
2018-06-20T07:55:59.525Z,22.7
2018-06-20T07:56:59.254Z,22.7
2018-06-20T07:57:58.474Z,22.7
2018-06-20T07:58:58.326Z,22.7
2018-06-20T07:59:57.748Z,22.8
2018-06-20T08:00:58.225Z,22.8
2018-06-20T08:01:56.601Z,22.8
2018-06-20T08:02:55.818Z,22.8
2018-06-20T08:03:55.419Z,22.9
2018-06-20T08:04:54.860Z,22.9
2018-06-20T08:05:53.990Z,23
2018-06-20T08:06:53.818Z,23
2018-06-20T08:07:52.823Z,23
2018-06-20T08:08:52.655Z,23
2018-06-20T08:09:52.373Z,23.1
2018-06-20T08:10:51.794Z,23.1
2018-06-20T08:11:51.218Z,23.1
2018-06-20T08:12:50.645Z,23.1
2018-06-20T08:13:49.857Z,23
2018-06-20T08:14:49.685Z,23
2018-06-20T08:15:49.002Z,23
2018-06-20T08:16:48.221Z,23
2018-06-20T08:17:48.042Z,23
2018-06-20T08:18:47.504Z,23
2018-06-20T08:19:46.827Z,23
2018-06-20T08:20:45.934Z,23
2018-06-20T08:21:45.657Z,23.1
2018-06-20T08:22:15.971Z,23.1
2018-06-20T08:22:46.595Z,23.1
2018-06-20T08:23:44.296Z,23.1
2018-06-20T08:24:44.011Z,23.2
2018-06-20T08:25:44.272Z,23.2
2018-06-20T08:26:42.931Z,23.2
2018-06-20T08:27:13.457Z,23.2
2018-06-20T08:28:41.970Z,23.3
2018-06-20T08:29:41.305Z,23.2
2018-06-20T08:30:41.131Z,23.3
2018-06-20T08:31:40.447Z,23.2
2018-06-20T08:32:39.773Z,23.3
2018-06-20T08:33:39.598Z,23.3
2018-06-20T08:34:38.702Z,23.3
2018-06-20T08:35:38.425Z,23.3
2018-06-20T08:36:37.862Z,23.3
2018-06-20T08:37:08.278Z,23.3
2018-06-20T08:37:38.818Z,23.4
2018-06-20T08:38:09.253Z,23.4
2018-06-20T08:38:39.983Z,23.4
2018-06-20T08:39:10.217Z,23.4
2018-06-20T08:39:40.460Z,23.5
2018-06-20T08:40:10.590Z,23.5
2018-06-20T08:40:41.115Z,23.6
2018-06-20T08:41:34.914Z,23.6
2018-06-20T08:42:35.188Z,23.6
2018-06-20T08:43:33.806Z,23.7
2018-06-20T08:44:33.416Z,23.7
2018-06-20T08:45:33.250Z,23.8
2018-06-20T08:46:32.694Z,23.8
2018-06-20T08:47:32.017Z,23.9
2018-06-20T08:48:31.230Z,24
2018-06-20T08:49:31.053Z,24
2018-06-20T08:50:30.372Z,24.1
2018-06-20T08:51:30.202Z,24.2
2018-06-20T08:52:29.314Z,24.2
2018-06-20T08:53:29.138Z,24.3
2018-06-20T08:54:28.565Z,24.3
2018-06-20T08:55:27.884Z,24.3
2018-06-20T08:56:27.115Z,24.3
2018-06-20T08:57:26.966Z,24.2
2018-06-20T08:58:26.287Z,24.2
2018-06-20T08:59:26.002Z,24.2
2018-06-20T09:00:25.442Z,24.2
2018-06-20T09:01:24.653Z,24.2
2018-06-20T09:02:24.374Z,24.3
2018-06-20T09:03:23.588Z,24.2
2018-06-20T09:04:23.516Z,24.1
2018-06-20T09:05:22.945Z,24.1
2018-06-20T09:06:22.269Z,24.2
2018-06-20T09:07:22.096Z,24.2
2018-06-20T09:08:21.310Z,24.2
2018-06-20T09:09:21.029Z,24.2
2018-06-20T09:10:20.341Z,24.2
2018-06-20T09:10:50.979Z,24.2
2018-06-20T09:13:18.474Z,24.3
2018-06-20T09:14:18.618Z,24.4
2018-06-20T09:15:17.808Z,24.4
2018-06-20T09:16:17.024Z,24.3
2018-06-20T09:17:16.849Z,24.2
2018-06-20T09:18:16.067Z,24.2
2018-06-20T09:18:46.592Z,24.2
2018-06-20T09:19:17.229Z,24.3
2018-06-20T09:19:47.646Z,24.3
2018-06-20T09:20:18.183Z,24.3
2018-06-20T09:20:48.590Z,24.3
2018-06-20T09:21:19.127Z,24.3
2018-06-20T09:21:49.872Z,24.3
2018-06-20T09:22:20.115Z,24.4
2018-06-20T09:22:50.036Z,24.4
2018-06-20T09:24:13.617Z,24.6
2018-06-20T09:25:12.937Z,24.7
2018-06-20T09:26:12.256Z,24.8
2018-06-20T09:27:12.081Z,24.9
2018-06-20T09:28:11.394Z,24.9
2018-06-20T09:29:10.609Z,25
2018-06-20T09:30:11.216Z,25.1
2018-06-20T09:31:09.819Z,25.1
2018-06-20T09:32:09.743Z,25.2
2018-06-20T09:33:09.061Z,25.2
2018-06-20T09:33:39.183Z,25.2
2018-06-20T09:34:09.723Z,25.2
2018-06-20T09:35:08.047Z,25.2
2018-06-20T09:36:07.373Z,25.2
2018-06-20T09:37:07.317Z,25.1
2018-06-20T09:39:05.828Z,25.1
2018-06-20T09:40:05.549Z,25.1
2018-06-20T09:41:04.773Z,25.1
2018-06-20T09:42:04.498Z,25.1
2018-06-20T09:43:04.321Z,25
2018-06-20T09:44:03.649Z,25
2018-06-20T09:45:02.988Z,25
2018-06-20T09:46:02.600Z,25
2018-06-20T09:47:02.050Z,25.1
2018-06-20T09:48:01.774Z,25.1
2018-06-20T09:50:00.381Z,24.9
2018-06-20T09:51:00.100Z,24.7
2018-06-20T09:52:00.034Z,24.7
2018-06-20T09:52:59.367Z,24.7
2018-06-20T09:53:58.584Z,24.7
2018-06-20T09:54:58.542Z,24.7
2018-06-20T09:55:57.751Z,24.7
2018-06-20T09:56:57.625Z,24.7
2018-06-20T09:57:56.964Z,24.7
2018-06-20T09:58:56.632Z,24.8
2018-06-20T09:59:56.135Z,24.8
2018-06-20T10:00:55.346Z,24.9
2018-06-20T10:01:55.171Z,24.9
2018-06-20T10:02:54.497Z,24.9
2018-06-20T10:03:54.101Z,25
2018-06-20T10:04:53.423Z,25.2
2018-06-20T10:05:53.396Z,25.2
2018-06-20T10:06:53.202Z,25.2
2018-06-20T10:07:52.100Z,25.3
2018-06-20T10:08:51.534Z,25.3
2018-06-20T10:09:21.763Z,25.3
2018-06-20T10:09:51.901Z,25.4
2018-06-20T10:10:50.506Z,25.5
2018-06-20T10:11:50.437Z,25.5
2018-06-20T10:12:49.871Z,25.6
2018-06-20T10:13:49.192Z,25.6
2018-06-20T10:14:48.696Z,25.6
2018-06-20T10:15:48.427Z,25.8
2018-06-20T10:16:47.532Z,25.9
2018-06-20T10:17:47.355Z,26
2018-06-20T10:18:46.790Z,26
2018-06-20T10:19:46.717Z,25.9
2018-06-20T10:20:17.071Z,25.9
2018-06-20T10:20:47.206Z,25.9
2018-06-20T10:21:45.529Z,25.8
2018-06-20T10:22:44.857Z,25.8
2018-06-20T10:23:44.572Z,25.8
2018-06-20T10:24:44.290Z,25.7
2018-06-20T10:25:43.400Z,25.5
2018-06-20T10:26:43.342Z,25.4
2018-06-20T10:27:42.556Z,25.3
2018-06-20T10:28:42.502Z,25.2
2018-06-20T10:29:41.848Z,25.3
2018-06-20T10:30:41.169Z,25.3
2018-06-20T10:31:40.889Z,25.3
2018-06-20T10:32:40.004Z,25.6
2018-06-20T10:33:39.835Z,25.6
2018-06-20T10:34:39.659Z,25.7
2018-06-20T10:35:38.982Z,25.8
2018-06-20T10:36:38.303Z,25.8
2018-06-20T10:38:37.520Z,25.8
2018-06-20T10:39:37.302Z,25.8
2018-06-20T10:40:36.738Z,25.8
2018-06-20T10:41:36.069Z,25.9
2018-06-20T10:42:35.795Z,26
2018-06-20T10:43:35.108Z,26.1
2018-06-20T10:44:34.935Z,26.2
2018-06-20T10:45:34.257Z,26.3
2018-06-20T10:46:34.113Z,26.4
2018-06-20T10:47:33.432Z,26.5
2018-06-20T10:48:32.861Z,26.6
2018-06-20T10:49:32.583Z,26.7
2018-06-20T10:50:31.907Z,26.7
2018-06-20T10:51:31.731Z,26.8
2018-06-20T10:52:31.063Z,26.7
2018-06-20T10:53:30.780Z,26.8
2018-06-20T10:54:30.290Z,26.9
2018-06-20T10:55:30.222Z,26.9
2018-06-20T10:56:29.324Z,26.9
2018-06-20T10:57:29.255Z,27
2018-06-20T10:58:28.249Z,27
2018-06-20T10:59:27.967Z,27.1
2018-06-20T11:00:27.799Z,27.1
2018-06-20T11:01:26.805Z,27
2018-06-20T11:02:26.414Z,26.8
2018-06-20T11:03:26.277Z,26.9
2018-06-20T11:04:26.001Z,26.9
2018-06-20T11:06:25.108Z,26.8
2018-06-20T11:07:24.338Z,26.8
2018-06-20T11:08:24.070Z,26.8
2018-06-20T11:09:23.682Z,26.6
2018-06-20T11:10:23.292Z,26.3
2018-06-20T11:11:23.109Z,26.1
2018-06-20T11:12:22.531Z,26.1
2018-06-20T11:13:22.247Z,25.9
2018-06-20T11:14:21.373Z,25.9
2018-06-20T11:15:21.233Z,25.8
2018-06-20T11:15:51.886Z,25.8
2018-06-20T11:16:22.514Z,25.8
2018-06-20T11:16:53.150Z,25.8
2018-06-20T11:18:20.056Z,25.8
2018-06-20T11:19:19.169Z,25.8
2018-06-20T11:20:18.975Z,25.7
2018-06-20T11:21:18.697Z,25.8
2018-06-20T11:22:17.914Z,25.9
2018-06-20T11:22:48.550Z,25.9
2018-06-20T11:23:19.527Z,26
2018-06-20T11:23:49.714Z,26
2018-06-20T11:24:20.029Z,26
2018-06-20T11:25:16.831Z,26
2018-06-20T11:26:16.558Z,26.2
2018-06-20T11:27:15.776Z,26.3
2018-06-20T11:28:15.609Z,26.4
2018-06-20T11:29:15.798Z,26.3
2018-06-20T11:30:14.664Z,26.2
2018-06-20T11:31:14.668Z,26.1
2018-06-20T11:32:14.023Z,26.1
2018-06-20T11:33:13.237Z,26.2
2018-06-20T11:34:13.170Z,26.1
2018-06-20T11:34:43.300Z,26.1
2018-06-20T11:36:12.227Z,26.1
2018-06-20T11:37:11.837Z,26.1
2018-06-20T11:38:11.055Z,26
2018-06-20T11:39:10.885Z,26
2018-06-20T11:40:10.604Z,26
2018-06-20T11:41:09.817Z,25.8
2018-06-20T11:42:09.638Z,25.8
2018-06-20T11:43:09.355Z,25.9
2018-06-20T11:44:08.461Z,26.1
2018-06-20T11:45:08.291Z,26.3
2018-06-20T11:46:08.041Z,26.5
2018-06-20T11:47:07.261Z,26.5
2018-06-20T11:48:06.975Z,26.7
2018-06-20T11:49:06.800Z,26.6
2018-06-20T11:50:06.120Z,26.7
2018-06-20T11:51:05.630Z,26.7
2018-06-20T11:52:05.350Z,26.6
2018-06-20T11:53:05.169Z,26.7
2018-06-20T11:55:03.673Z,26.7
2018-06-20T11:56:03.284Z,26.6
2018-06-20T11:57:02.799Z,26.6
2018-06-20T11:58:02.795Z,26.6
2018-06-20T11:59:02.367Z,26.5
2018-06-20T12:00:01.889Z,26.5
2018-06-20T12:01:01.392Z,26.5
2018-06-20T12:02:01.119Z,26.6
2018-06-20T12:03:00.729Z,26.7
2018-06-20T12:04:01.101Z,26.8
2018-06-20T12:04:59.656Z,26.8
2018-06-20T12:05:59.475Z,26.9
2018-06-20T12:06:59.092Z,27
2018-06-20T12:07:58.411Z,27.2
2018-06-20T12:08:58.353Z,27.5
2018-06-20T12:09:57.776Z,27.6
2018-06-20T12:10:57.384Z,27.8
2018-06-20T12:11:57.330Z,28
2018-06-20T12:12:56.541Z,28.2
2018-06-20T12:13:56.486Z,28.5
2018-06-20T12:14:55.701Z,28.5
2018-06-20T12:15:55.518Z,28.5
2018-06-20T12:16:54.943Z,28.7
2018-06-20T12:17:54.879Z,28.5
2018-06-20T12:18:54.091Z,28.4
2018-06-20T12:19:53.706Z,28.6
2018-06-20T12:20:53.538Z,28.4
2018-06-20T12:21:53.138Z,28.6
2018-06-20T12:22:52.366Z,28.6
2018-06-20T12:23:51.973Z,28.7
2018-06-20T12:24:51.797Z,28.9
2018-06-20T12:25:51.631Z,29.1
2018-06-20T12:26:50.957Z,28.8
2018-06-20T12:27:50.673Z,28.7
2018-06-20T12:28:50.495Z,28.7
2018-06-20T12:29:49.924Z,28.8
2018-06-20T12:30:49.744Z,28.9
2018-06-20T12:31:49.072Z,29
2018-06-20T12:32:48.795Z,28.9
2018-06-20T12:33:48.723Z,28.9
2018-06-20T12:34:47.829Z,28.7
2018-06-20T12:35:18.360Z,28.7
2018-06-20T12:37:47.067Z,28.8
2018-06-20T12:38:46.902Z,29
2018-06-20T12:39:46.224Z,28.7
2018-06-20T12:40:46.224Z,28.5
2018-06-20T12:41:45.447Z,28.7
2018-06-20T12:42:45.350Z,29
2018-06-20T12:43:44.574Z,29.2
2018-06-20T12:44:44.194Z,29.4
2018-06-20T12:45:44.317Z,29.5
2018-06-20T12:46:43.643Z,29.4
2018-06-20T12:47:43.575Z,29.5
2018-06-20T12:48:43.290Z,29.5
2018-06-20T12:49:43.004Z,29.6
2018-06-20T12:50:42.331Z,29.8
2018-06-20T12:51:42.054Z,29.6
2018-06-20T12:52:41.665Z,29.7
2018-06-20T12:53:41.591Z,29.8
2018-06-20T12:54:40.914Z,29.8
2018-06-20T12:55:40.529Z,29.9
2018-06-20T12:56:40.138Z,29.6
2018-06-20T12:57:40.465Z,29.7
2018-06-20T12:58:39.918Z,29.6
2018-06-20T12:59:39.850Z,29.3
2018-06-20T13:00:38.959Z,29.2
2018-06-20T13:01:38.684Z,29.4